Station: Noona  

  Atmospheric Gas Attenuation - ITU Rec 676-11   ----------------- dB/100km -----------------
Date Time Temp RH % AH g/m3 Dew Point Wind Direction Speed kph Gust kph Barometer mB Rainfall Since 9am 24GHz 47GHz 76GHz 122GHz 134GHz 241GHz
08/05 12:30 15.2 59 7.66 7.3 1013.1 0 17.5 24.0 35.5 92.9 84.7 290.6
08/05 12:20 15.3 59 7.7 7.5 1013.1 0 17.6 24.1 35.6 93.2 85.1 292.0
08/05 12:10 14.7 60 7.55 7 1013.1 0 17.3 24.0 35.3 92.4 83.8 287.5
08/05 12:00 14.9 60 7.65 7.2 1013.1 0 17.5 24.1 35.6 93.1 84.9 291.2
08/05 11:50 14.9 60 7.65 7.2 1013.1 0 17.5 24.1 35.6 93.1 84.9 291.2
08/05 11:40 14.7 60 7.55 7 1013.1 0 17.3 24.0 35.3 92.4 83.8 287.5
08/05 11:30 14.9 60 7.65 7.2 1013.1 0 17.5 24.1 35.6 93.1 84.9 291.2
08/05 11:20 15 59 7.57 7 1013.1 0 17.3 23.9 35.2 92.2 83.8 287.3
08/05 11:10 14.2 61 7.45 6.8 1013.1 0 17.1 24.0 35.1 91.9 83.1 284.9
08/05 11:00 14.2 61 7.45 6.8 1013.1 0 17.1 24.0 35.1 91.9 83.1 284.9
08/05 10:50 14.1 62 7.52 6.9 1013.1 0 17.3 24.1 35.4 92.7 84.1 288.4
08/05 10:40 13.9 62 7.43 6.9 1013.1 0 17.1 24.0 35.2 92.1 83.2 285.1
08/05 10:30 13.3 64 7.39 6.6 1013.1 0 17.0 24.1 35.3 92.3 83.3 285.5
08/05 10:20 13.4 63 7.32 6.5 1013.1 0 16.9 24.0 35.0 91.5 82.3 282.0
08/05 10:10 13.4 64 7.44 6.7 1013.1 0 17.1 24.2 35.4 92.7 83.8 287.4
08/05 10:00 12.9 63 7.1 6 1013.1 0 16.4 23.8 34.3 89.8 80.0 274.0
08/05 09:50 12.7 65 7.24 6.3 1013.1 0 16.7 24.0 34.9 91.5 82.0 281.0
08/05 09:40 12 65 6.93 5.6 1013.1 0 16.1 23.7 34.1 89.1 78.8 269.6
08/05 09:30 11.9 65 6.88 5.5 1013.1 0 16.0 23.7 33.9 88.7 78.3 267.7
08/05 09:20 11.7 66 6.9 5.5 1013.1 0 16.1 23.8 34.1 89.1 78.7 269.2
08/05 09:10 11.6 66 6.86 5.6 1013.1 0 16.0 23.7 34.0 88.8 78.3 267.8
08/05 09:00 11.2 68 6.89 5.5 1013.1 0 16.0 23.9 34.2 89.6 79.1 270.5
08/05 08:50 10.4 68 6.56 4.7 1013.1 0 15.4 23.6 33.3 87.0 75.6 258.3
08/05 08:40 10.1 68 6.43 4.6 1013.1 0 15.1 23.5 32.9 86.0 74.3 253.5
08/05 08:30 9.4 69 6.24 4 1013.1 0 14.7 23.3 32.5 84.8 72.5 247.2
08/05 08:20 8.9 70 6.13 3.7 1013.1 0 14.5 23.3 32.2 84.2 71.6 243.8
08/05 08:10 8.3 70 5.9 3.1 1013.1 0 14.0 23.1 31.6 82.4 69.1 235.2
08/05 08:00 7.8 72 5.88 3.1 1013.1 0 14.0 23.2 31.7 82.8 69.3 235.8
08/05 07:50 7.2 73 5.73 2.7 1013.1 0 13.7 23.1 31.3 81.8 67.9 230.8
08/05 07:40 6.8 74 5.66 2.5 1013.1 0 13.6 23.1 31.2 81.5 67.4 228.8
08/05 07:30 6.6 74 5.59 2.3 1013.1 0 13.4 23.0 31.0 81.0 66.6 226.2
08/05 07:20 6.4 75 5.59 2.3 1013.1 0 13.4 23.1 31.1 81.2 66.8 226.8
08/05 07:10 6.3 74 5.48 2 1013.1 0 13.2 22.9 30.7 80.1 65.5 222.0
08/05 07:00 6.4 74 5.52 2.1 1013.1 0 13.3 23.0 30.8 80.4 65.9 223.6
08/05 06:50 6.4 73 5.44 1.9 1013.1 0 13.1 22.8 30.5 79.6 64.9 219.9
08/05 06:40 6.5 72 5.4 1.8 1013.1 0 13.0 22.8 30.3 79.1 64.3 217.9
08/05 06:30 6.5 71 5.33 1.6 1013.1 0 12.9 22.7 30.1 78.4 63.4 214.7
08/05 06:20 6.6 71 5.36 1.7 1013.1 0 12.9 22.7 30.1 78.6 63.7 215.8
08/05 06:10 6.6 70 5.29 1.5 1013.1 0 12.8 22.6 29.9 77.9 62.8 212.6
08/05 06:00 6.6 69 5.21 1.3 1013.1 0 12.6 22.4 29.6 77.0 61.8 209.1
08/05 05:50 6.7 68 5.17 1.2 1013.1 0 12.5 22.4 29.4 76.5 61.2 207.0
08/05 05:40 6.6 68 5.14 1.1 1013.1 0 12.5 22.3 29.3 76.3 60.9 205.9
08/05 05:30 6.6 67 5.06 0.9 1013.1 0 12.3 22.2 29.0 75.5 59.9 202.4
08/05 05:20 6.5 67 5.03 0.8 1013.1 0 12.2 22.2 28.9 75.3 59.6 201.3
08/05 05:10 6.4 66 4.92 0.5 1013.1 0 12.0 22.0 28.5 74.2 58.2 196.7
08/05 05:00 6.6 65 4.91 0.5 1013.1 0 12.0 22.0 28.4 74.0 58.0 195.8
08/05 04:50 6.5 66 4.95 0.6 1013.1 0 12.1 22.1 28.6 74.5 58.5 197.8
08/05 04:40 6.4 66 4.92 0.5 1013.1 0 12.0 22.0 28.5 74.2 58.2 196.7
08/05 04:30 6.3 66 4.89 0.4 1013.1 0 11.9 22.0 28.4 74.0 57.9 195.6
08/05 04:20 6.3 66 4.89 0.4 1013.1 0 11.9 22.0 28.4 74.0 57.9 195.6
08/05 04:10 6.3 65 4.81 0.2 1013.1 0 11.8 21.9 28.1 73.2 56.9 192.1
08/05 04:00 6.3 65 4.81 0.2 1013.1 0 11.8 21.9 28.1 73.2 56.9 192.1
08/05 03:50 6.4 64 4.77 0.1 1013.1 0 11.7 21.8 28.0 72.7 56.4 190.1
08/05 03:40 6.4 64 4.77 0.1 1013.1 0 11.7 21.8 28.0 72.7 56.4 190.1
08/05 03:30 6.3 64 4.74 0 1013.1 0 11.6 21.8 27.9 72.5 56.1 189.0
08/05 03:20 6.2 64 4.71 -0.1 1013.1 0 11.6 21.8 27.8 72.3 55.7 187.9
08/05 03:10 6.5 63 4.73 -0.1 1013.1 0 11.6 21.7 27.8 72.2 55.8 188.1
08/05 03:00 6.6 63 4.76 0.1 1013.1 0 11.7 21.7 27.8 72.4 56.1 189.2
08/05 02:50 6.7 62 4.71 -0.1 1013.1 0 11.6 21.6 27.6 71.8 55.4 186.7
08/05 02:40 7 60 4.65 -0.3 1013.1 0 11.4 21.5 27.3 71.0 54.4 183.4
08/05 02:30 7.3 60 4.74 0.1 1013.1 0 11.6 21.6 27.5 71.6 55.3 186.6
08/05 02:20 7.3 60 4.74 0 1013.1 0 11.6 21.6 27.5 71.6 55.3 186.6
08/05 02:10 7.3 59 4.66 -0.2 1013.1 0 11.4 21.4 27.2 70.8 54.4 183.2
08/05 02:00 7.4 58 4.61 -0.3 1013.1 0 11.3 21.3 27.0 70.2 53.7 180.8
08/05 01:50 7.6 58 4.67 -0.2 1013.1 0 11.4 21.4 27.2 70.6 54.3 182.9
08/05 01:40 7.7 58 4.71 -0.1 1013.1 0 11.5 21.4 27.3 71.0 54.7 184.4
08/05 01:30 7.6 58 4.67 -0.1 1013.1 0 11.4 21.4 27.2 70.6 54.3 182.9
08/05 01:20 7.7 58 4.71 -0.1 1013.1 0 11.5 21.4 27.3 71.0 54.7 184.4
08/05 01:10 7.7 58 4.71 -0.1 1013.1 0 11.5 21.4 27.3 71.0 54.7 184.4
08/05 01:00 7.5 59 4.72 0 1013.1 0 11.5 21.5 27.4 71.2 55.0 185.3
08/05 00:50 7.4 58 4.61 -0.3 1013.1 0 11.3 21.3 27.0 70.2 53.7 180.8
08/05 00:40 7.5 57 4.56 -0.3 1013.1 0 11.2 21.2 26.8 69.6 53.0 178.4
08/05 00:20 7.6 58 4.67 -0.2 1013.1 0 11.4 21.4 27.2 70.6 54.3 182.9
08/05 00:10 7.6 57 4.59 -0.4 1013.1 0 11.3 21.3 26.9 69.9 53.3 179.5
08/05 00:00 7.5 57 4.56 -0.5 1013.1 0 11.2 21.2 26.8 69.6 53.0 178.4
07/05 23:50 7.7 56 4.54 -0.5 1013.1 0 11.2 21.2 26.7 69.3 52.6 177.1
07/05 23:40 7.7 56 4.54 -0.5 1013.1 0 11.2 21.2 26.7 69.3 52.6 177.1
07/05 23:30 7.8 56 4.57 -0.4 1013.1 0 11.2 21.2 26.7 69.5 52.9 178.2
07/05 23:20 7.8 55 4.49 -0.7 1013.1 0 11.0 21.1 26.4 68.7 51.9 174.8
07/05 23:10 7.9 55 4.52 -0.6 1013.1 0 11.1 21.1 26.5 68.9 52.2 175.8
07/05 23:00 8 54 4.47 -0.7 1013.1 0 11.0 21.0 26.3 68.3 51.6 173.5
07/05 22:50 8.2 53 4.44 -0.8 1013.1 0 10.9 20.9 26.1 67.9 51.1 171.8
07/05 22:40 8.3 52 4.38 -1 1013.1 0 10.8 20.8 25.9 67.2 50.3 169.0
07/05 22:30 8.5 51 4.36 -1 1013.1 0 10.7 20.7 25.7 66.8 49.9 167.8
07/05 22:20 8.5 51 4.36 -1.1 1013.1 0 10.7 20.7 25.7 66.8 49.9 167.8
07/05 22:10 8.6 51 4.38 -1 1013.1 0 10.8 20.7 25.8 66.9 50.1 168.4
07/05 22:00 8.6 51 4.38 -0.9 1013.1 0 10.8 20.7 25.8 66.9 50.1 168.4
07/05 21:50 8.6 50 4.3 -1.3 1013.1 0 10.6 20.6 25.5 66.2 49.2 165.1
07/05 21:40 8.6 50 4.3 -1.3 1013.1 0 10.6 20.6 25.5 66.2 49.2 165.1
07/05 21:30 8.7 50 4.33 -1.1 1013.1 0 10.7 20.6 25.6 66.4 49.5 166.1
07/05 21:20 8.8 50 4.35 -1.1 1013.1 0 10.7 20.6 25.6 66.5 49.6 166.7
07/05 21:10 9.1 48 4.26 -1.4 1013.1 0 10.5 20.4 25.2 65.4 48.4 162.4
07/05 21:00 9.4 47 4.25 -1.3 1013.1 0 10.5 20.4 25.1 65.0 48.1 161.4
07/05 20:50 9.5 47 4.28 -1.3 1013.1 0 10.5 20.4 25.1 65.2 48.4 162.4
07/05 20:40 9.5 47 4.28 -1.3 1013.1 0 10.5 20.4 25.1 65.2 48.4 162.4
07/05 20:30 9.5 47 4.28 -1.2 1013.1 0 10.5 20.4 25.1 65.2 48.4 162.4
07/05 20:20 9.8 46 4.27 -1.3 1013.1 0 10.5 20.3 25.0 64.9 48.1 161.4
07/05 20:10 10.1 45 4.26 -1.3 1013.1 0 10.5 20.2 24.9 64.6 47.8 160.4
07/05 20:00 10 45 4.23 -1.4 1013.1 0 10.4 20.2 24.8 64.4 47.5 159.4
07/05 19:50 10 45 4.23 -1.4 1013.1 0 10.4 20.2 24.8 64.4 47.5 159.4

Last Refresh: 08-May-2026 12:08:51

Bureau of Meteorology